sensor_id;sensor_type;location;lat;lon;timestamp;P1;P2;P0
26720;PMS1003;15950;51.112;6.966;2023-06-22T00:02:00;004;004;
26720;PMS1003;15950;51.112;6.966;2023-06-22T00:05:00;002;001;
26720;PMS1003;15950;51.112;6.966;2023-06-22T00:08:02;003;002;
26720;PMS1003;15950;51.112;6.966;2023-06-22T00:11:00;000;000;
26720;PMS1003;15950;51.112;6.966;2023-06-22T00:14:00;003;002;
26720;PMS1003;15950;51.112;6.966;2023-06-22T00:17:00;003;002;
26720;PMS1003;15950;51.112;6.966;2023-06-22T00:20:00;002;001;
26720;PMS1003;15950;51.112;6.966;2023-06-22T00:23:00;004;004;
26720;PMS1003;15950;51.112;6.966;2023-06-22T00:26:00;002;001;
26720;PMS1003;15950;51.112;6.966;2023-06-22T00:29:00;002;002;
26720;PMS1003;15950;51.112;6.966;2023-06-22T00:32:00;002;001;
26720;PMS1003;15950;51.112;6.966;2023-06-22T00:35:00;003;002;
26720;PMS1003;15950;51.112;6.966;2023-06-22T00:38:00;004;003;
26720;PMS1003;15950;51.112;6.966;2023-06-22T00:41:00;003;002;
26720;PMS1003;15950;51.112;6.966;2023-06-22T00:44:00;005;003;
26720;PMS1003;15950;51.112;6.966;2023-06-22T00:47:00;004;003;
26720;PMS1003;15950;51.112;6.966;2023-06-22T00:50:00;003;002;
26720;PMS1003;15950;51.112;6.966;2023-06-22T00:53:02;004;003;
26720;PMS1003;15950;51.112;6.966;2023-06-22T00:56:00;002;001;
26720;PMS1003;15950;51.112;6.966;2023-06-22T00:59:00;002;001;
26720;PMS1003;15950;51.112;6.966;2023-06-22T01:02:00;003;002;
26720;PMS1003;15950;51.112;6.966;2023-06-22T01:05:00;002;002;
26720;PMS1003;15950;51.112;6.966;2023-06-22T01:14:04;000;000;
26720;PMS1003;15950;51.112;6.966;2023-06-22T01:17:00;000;000;
26720;PMS1003;15950;51.112;6.966;2023-06-22T01:20:00;005;004;
26720;PMS1003;15950;51.112;6.966;2023-06-22T01:29:00;002;002;
26720;PMS1003;15950;51.112;6.966;2023-06-22T01:32:01;002;002;
26720;PMS1003;15950;51.112;6.966;2023-06-22T01:35:01;002;001;
26720;PMS1003;15950;51.112;6.966;2023-06-22T01:38:00;003;002;
26720;PMS1003;15950;51.112;6.966;2023-06-22T01:41:00;003;002;
26720;PMS1003;15950;51.112;6.966;2023-06-22T01:44:00;002;002;
26720;PMS1003;15950;51.112;6.966;2023-06-22T01:47:00;000;000;
26720;PMS1003;15950;51.112;6.966;2023-06-22T01:50:00;002;002;
26720;PMS1003;15950;51.112;6.966;2023-06-22T01:53:00;003;002;
26720;PMS1003;15950;51.112;6.966;2023-06-22T01:56:00;003;002;
26720;PMS1003;15950;51.112;6.966;2023-06-22T01:59:44;007;005;
26720;PMS1003;15950;51.112;6.966;2023-06-22T02:02:01;002;001;
26720;PMS1003;15950;51.112;6.966;2023-06-22T02:05:05;004;004;
26720;PMS1003;15950;51.112;6.966;2023-06-22T02:11:00;003;002;
26720;PMS1003;15950;51.112;6.966;2023-06-22T02:14:00;003;002;
26720;PMS1003;15950;51.112;6.966;2023-06-22T02:17:00;005;003;
26720;PMS1003;15950;51.112;6.966;2023-06-22T02:20:01;004;003;
26720;PMS1003;15950;51.112;6.966;2023-06-22T02:23:00;003;002;
26720;PMS1003;15950;51.112;6.966;2023-06-22T02:26:01;004;003;
26720;PMS1003;15950;51.112;6.966;2023-06-22T02:29:00;007;005;
26720;PMS1003;15950;51.112;6.966;2023-06-22T02:32:00;003;002;
26720;PMS1003;15950;51.112;6.966;2023-06-22T02:35:00;006;004;
26720;PMS1003;15950;51.112;6.966;2023-06-22T02:38:01;004;003;
26720;PMS1003;15950;51.112;6.966;2023-06-22T02:41:00;006;004;
26720;PMS1003;15950;51.112;6.966;2023-06-22T02:44:00;005;003;
26720;PMS1003;15950;51.112;6.966;2023-06-22T02:47:00;006;004;
26720;PMS1003;15950;51.112;6.966;2023-06-22T02:50:00;006;004;
26720;PMS1003;15950;51.112;6.966;2023-06-22T02:53:00;005;005;
26720;PMS1003;15950;51.112;6.966;2023-06-22T02:56:01;003;002;
26720;PMS1003;15950;51.112;6.966;2023-06-22T02:59:00;006;004;
26720;PMS1003;15950;51.112;6.966;2023-06-22T03:02:00;003;002;
26720;PMS1003;15950;51.112;6.966;2023-06-22T03:05:00;003;002;
26720;PMS1003;15950;51.112;6.966;2023-06-22T03:08:00;005;004;
26720;PMS1003;15950;51.112;6.966;2023-06-22T03:11:00;007;005;
26720;PMS1003;15950;51.112;6.966;2023-06-22T03:14:00;005;003;
26720;PMS1003;15950;51.112;6.966;2023-06-22T03:17:00;003;002;
26720;PMS1003;15950;51.112;6.966;2023-06-22T03:20:03;002;002;
26720;PMS1003;15950;51.112;6.966;2023-06-22T03:23:00;002;001;
26720;PMS1003;15950;51.112;6.966;2023-06-22T03:26:01;005;004;
26720;PMS1003;15950;51.112;6.966;2023-06-22T03:29:00;005;003;
26720;PMS1003;15950;51.112;6.966;2023-06-22T03:32:00;005;003;
26720;PMS1003;15950;51.112;6.966;2023-06-22T03:35:00;003;002;
26720;PMS1003;15950;51.112;6.966;2023-06-22T03:38:00;003;002;
26720;PMS1003;15950;51.112;6.966;2023-06-22T03:41:00;003;002;
26720;PMS1003;15950;51.112;6.966;2023-06-22T03:44:00;004;003;
26720;PMS1003;15950;51.112;6.966;2023-06-22T03:47:00;005;003;
26720;PMS1003;15950;51.112;6.966;2023-06-22T03:50:01;003;002;
26720;PMS1003;15950;51.112;6.966;2023-06-22T03:53:00;005;005;
26720;PMS1003;15950;51.112;6.966;2023-06-22T03:56:00;004;004;
26720;PMS1003;15950;51.112;6.966;2023-06-22T03:59:00;005;003;
26720;PMS1003;15950;51.112;6.966;2023-06-22T04:02:00;004;003;
26720;PMS1003;15950;51.112;6.966;2023-06-22T04:05:00;004;004;
26720;PMS1003;15950;51.112;6.966;2023-06-22T04:08:00;002;002;
26720;PMS1003;15950;51.112;6.966;2023-06-22T04:11:00;005;004;
26720;PMS1003;15950;51.112;6.966;2023-06-22T04:14:00;006;005;
26720;PMS1003;15950;51.112;6.966;2023-06-22T04:17:00;005;004;
26720;PMS1003;15950;51.112;6.966;2023-06-22T04:20:00;004;003;
26720;PMS1003;15950;51.112;6.966;2023-06-22T04:23:00;007;005;
26720;PMS1003;15950;51.112;6.966;2023-06-22T04:26:00;003;002;
26720;PMS1003;15950;51.112;6.966;2023-06-22T04:29:00;003;002;
26720;PMS1003;15950;51.112;6.966;2023-06-22T04:32:00;005;003;
26720;PMS1003;15950;51.112;6.966;2023-06-22T04:35:00;004;003;
26720;PMS1003;15950;51.112;6.966;2023-06-22T04:38:00;004;003;
26720;PMS1003;15950;51.112;6.966;2023-06-22T04:41:00;005;003;
26720;PMS1003;15950;51.112;6.966;2023-06-22T04:44:00;004;003;
26720;PMS1003;15950;51.112;6.966;2023-06-22T04:47:01;003;002;
26720;PMS1003;15950;51.112;6.966;2023-06-22T04:50:00;005;003;
26720;PMS1003;15950;51.112;6.966;2023-06-22T04:53:00;006;004;
26720;PMS1003;15950;51.112;6.966;2023-06-22T04:56:00;004;003;
26720;PMS1003;15950;51.112;6.966;2023-06-22T04:59:00;004;003;
26720;PMS1003;15950;51.112;6.966;2023-06-22T05:02:01;003;003;
26720;PMS1003;15950;51.112;6.966;2023-06-22T05:05:00;006;004;
26720;PMS1003;15950;51.112;6.966;2023-06-22T05:08:00;005;003;
26720;PMS1003;15950;51.112;6.966;2023-06-22T05:11:00;005;004;
26720;PMS1003;15950;51.112;6.966;2023-06-22T05:14:00;006;005;
26720;PMS1003;15950;51.112;6.966;2023-06-22T05:17:00;007;005;
26720;PMS1003;15950;51.112;6.966;2023-06-22T05:20:01;008;006;
26720;PMS1003;15950;51.112;6.966;2023-06-22T05:23:00;004;004;
26720;PMS1003;15950;51.112;6.966;2023-06-22T05:26:00;006;004;
26720;PMS1003;15950;51.112;6.966;2023-06-22T05:29:01;006;004;
26720;PMS1003;15950;51.112;6.966;2023-06-22T05:32:00;005;003;
26720;PMS1003;15950;51.112;6.966;2023-06-22T05:35:00;006;004;
26720;PMS1003;15950;51.112;6.966;2023-06-22T05:38:00;005;004;
26720;PMS1003;15950;51.112;6.966;2023-06-22T05:41:00;006;004;
26720;PMS1003;15950;51.112;6.966;2023-06-22T05:44:00;008;006;
26720;PMS1003;15950;51.112;6.966;2023-06-22T05:47:00;006;005;
26720;PMS1003;15950;51.112;6.966;2023-06-22T05:50:00;005;003;
26720;PMS1003;15950;51.112;6.966;2023-06-22T05:53:00;006;004;
26720;PMS1003;15950;51.112;6.966;2023-06-22T05:56:00;009;007;
26720;PMS1003;15950;51.112;6.966;2023-06-22T05:59:00;007;005;
26720;PMS1003;15950;51.112;6.966;2023-06-22T06:02:00;007;005;
26720;PMS1003;15950;51.112;6.966;2023-06-22T06:05:00;007;005;
26720;PMS1003;15950;51.112;6.966;2023-06-22T06:08:01;012;009;
26720;PMS1003;15950;51.112;6.966;2023-06-22T06:11:00;012;010;
26720;PMS1003;15950;51.112;6.966;2023-06-22T06:14:00;012;012;
26720;PMS1003;15950;51.112;6.966;2023-06-22T06:17:00;015;011;
26720;PMS1003;15950;51.112;6.966;2023-06-22T06:20:00;010;009;
26720;PMS1003;15950;51.112;6.966;2023-06-22T06:23:00;010;009;
26720;PMS1003;15950;51.112;6.966;2023-06-22T06:26:00;009;007;
26720;PMS1003;15950;51.112;6.966;2023-06-22T06:29:00;011;009;
26720;PMS1003;15950;51.112;6.966;2023-06-22T06:32:00;013;009;
26720;PMS1003;15950;51.112;6.966;2023-06-22T06:35:00;009;008;
26720;PMS1003;15950;51.112;6.966;2023-06-22T06:38:00;011;010;
26720;PMS1003;15950;51.112;6.966;2023-06-22T06:41:00;013;009;
26720;PMS1003;15950;51.112;6.966;2023-06-22T06:44:00;016;011;
26720;PMS1003;15950;51.112;6.966;2023-06-22T06:47:00;016;011;
26720;PMS1003;15950;51.112;6.966;2023-06-22T06:50:00;014;012;
26720;PMS1003;15950;51.112;6.966;2023-06-22T06:53:00;016;012;
26720;PMS1003;15950;51.112;6.966;2023-06-22T06:56:00;016;011;
26720;PMS1003;15950;51.112;6.966;2023-06-22T06:59:00;020;017;
26720;PMS1003;15950;51.112;6.966;2023-06-22T07:02:00;014;013;
26720;PMS1003;15950;51.112;6.966;2023-06-22T07:05:00;014;012;
26720;PMS1003;15950;51.112;6.966;2023-06-22T07:08:00;016;011;
26720;PMS1003;15950;51.112;6.966;2023-06-22T07:11:01;016;014;
26720;PMS1003;15950;51.112;6.966;2023-06-22T07:14:00;018;014;
26720;PMS1003;15950;51.112;6.966;2023-06-22T07:17:00;016;012;
26720;PMS1003;15950;51.112;6.966;2023-06-22T07:20:01;016;011;
26720;PMS1003;15950;51.112;6.966;2023-06-22T07:23:00;014;013;
26720;PMS1003;15950;51.112;6.966;2023-06-22T07:26:00;015;013;
26720;PMS1003;15950;51.112;6.966;2023-06-22T07:29:00;019;013;
26720;PMS1003;15950;51.112;6.966;2023-06-22T07:32:00;017;013;
26720;PMS1003;15950;51.112;6.966;2023-06-22T07:35:00;015;013;
26720;PMS1003;15950;51.112;6.966;2023-06-22T07:38:00;016;013;
26720;PMS1003;15950;51.112;6.966;2023-06-22T07:41:00;016;011;
26720;PMS1003;15950;51.112;6.966;2023-06-22T07:44:01;016;012;
26720;PMS1003;15950;51.112;6.966;2023-06-22T07:47:00;015;012;
26720;PMS1003;15950;51.112;6.966;2023-06-22T07:50:01;018;014;
26720;PMS1003;15950;51.112;6.966;2023-06-22T07:53:00;016;013;
26720;PMS1003;15950;51.112;6.966;2023-06-22T07:56:00;017;013;
26720;PMS1003;15950;51.112;6.966;2023-06-22T07:59:00;015;012;
26720;PMS1003;15950;51.112;6.966;2023-06-22T08:02:00;013;010;
26720;PMS1003;15950;51.112;6.966;2023-06-22T08:05:00;015;011;
26720;PMS1003;15950;51.112;6.966;2023-06-22T08:08:00;014;014;
26720;PMS1003;15950;51.112;6.966;2023-06-22T08:11:00;014;010;
26720;PMS1003;15950;51.112;6.966;2023-06-22T08:14:00;013;011;
26720;PMS1003;15950;51.112;6.966;2023-06-22T08:17:00;013;010;
26720;PMS1003;15950;51.112;6.966;2023-06-22T08:20:00;012;009;
26720;PMS1003;15950;51.112;6.966;2023-06-22T08:23:00;016;011;
26720;PMS1003;15950;51.112;6.966;2023-06-22T08:26:00;012;009;
26720;PMS1003;15950;51.112;6.966;2023-06-22T08:29:00;012;009;
26720;PMS1003;15950;51.112;6.966;2023-06-22T08:32:00;012;011;
26720;PMS1003;15950;51.112;6.966;2023-06-22T08:35:00;010;009;
26720;PMS1003;15950;51.112;6.966;2023-06-22T08:38:00;010;008;
26720;PMS1003;15950;51.112;6.966;2023-06-22T08:41:00;009;006;
26720;PMS1003;15950;51.112;6.966;2023-06-22T08:44:00;009;007;
26720;PMS1003;15950;51.112;6.966;2023-06-22T08:47:00;007;005;
26720;PMS1003;15950;51.112;6.966;2023-06-22T08:50:00;010;007;
26720;PMS1003;15950;51.112;6.966;2023-06-22T08:53:00;010;010;
26720;PMS1003;15950;51.112;6.966;2023-06-22T08:56:00;010;009;
26720;PMS1003;15950;51.112;6.966;2023-06-22T08:59:00;007;005;
26720;PMS1003;15950;51.112;6.966;2023-06-22T09:02:00;011;009;
26720;PMS1003;15950;51.112;6.966;2023-06-22T09:05:02;012;009;
26720;PMS1003;15950;51.112;6.966;2023-06-22T09:08:00;010;008;
26720;PMS1003;15950;51.112;6.966;2023-06-22T09:11:00;012;008;
26720;PMS1003;15950;51.112;6.966;2023-06-22T09:14:00;008;007;
26720;PMS1003;15950;51.112;6.966;2023-06-22T09:17:00;007;005;
26720;PMS1003;15950;51.112;6.966;2023-06-22T09:20:00;011;008;
26720;PMS1003;15950;51.112;6.966;2023-06-22T09:23:00;009;006;
26720;PMS1003;15950;51.112;6.966;2023-06-22T09:26:00;011;008;
26720;PMS1003;15950;51.112;6.966;2023-06-22T09:29:00;011;008;
26720;PMS1003;15950;51.112;6.966;2023-06-22T09:32:00;012;008;
26720;PMS1003;15950;51.112;6.966;2023-06-22T09:35:03;010;008;
26720;PMS1003;15950;51.112;6.966;2023-06-22T09:38:00;009;008;
26720;PMS1003;15950;51.112;6.966;2023-06-22T09:41:00;010;007;
26720;PMS1003;15950;51.112;6.966;2023-06-22T09:44:00;012;009;
26720;PMS1003;15950;51.112;6.966;2023-06-22T09:47:00;010;008;
26720;PMS1003;15950;51.112;6.966;2023-06-22T09:50:00;013;011;
26720;PMS1003;15950;51.112;6.966;2023-06-22T09:53:00;012;008;
26720;PMS1003;15950;51.112;6.966;2023-06-22T09:56:01;011;009;
26720;PMS1003;15950;51.112;6.966;2023-06-22T09:59:00;009;007;
26720;PMS1003;15950;51.112;6.966;2023-06-22T10:02:00;014;010;
26720;PMS1003;15950;51.112;6.966;2023-06-22T10:05:00;009;008;
26720;PMS1003;15950;51.112;6.966;2023-06-22T10:08:00;011;009;
26720;PMS1003;15950;51.112;6.966;2023-06-22T10:11:00;012;009;
26720;PMS1003;15950;51.112;6.966;2023-06-22T10:14:01;014;010;
26720;PMS1003;15950;51.112;6.966;2023-06-22T10:17:02;012;008;
26720;PMS1003;15950;51.112;6.966;2023-06-22T10:20:00;008;008;
26720;PMS1003;15950;51.112;6.966;2023-06-22T10:23:00;008;008;
26720;PMS1003;15950;51.112;6.966;2023-06-22T10:26:00;008;006;
26720;PMS1003;15950;51.112;6.966;2023-06-22T10:29:00;013;009;
26720;PMS1003;15950;51.112;6.966;2023-06-22T10:32:00;012;010;
26720;PMS1003;15950;51.112;6.966;2023-06-22T10:35:00;011;009;
26720;PMS1003;15950;51.112;6.966;2023-06-22T10:38:00;009;009;
26720;PMS1003;15950;51.112;6.966;2023-06-22T10:41:00;010;009;
26720;PMS1003;15950;51.112;6.966;2023-06-22T10:44:00;014;011;
26720;PMS1003;15950;51.112;6.966;2023-06-22T10:47:00;011;008;
26720;PMS1003;15950;51.112;6.966;2023-06-22T10:50:01;010;008;
26720;PMS1003;15950;51.112;6.966;2023-06-22T10:53:00;012;008;
26720;PMS1003;15950;51.112;6.966;2023-06-22T10:56:00;010;007;
26720;PMS1003;15950;51.112;6.966;2023-06-22T10:59:00;013;009;
26720;PMS1003;15950;51.112;6.966;2023-06-22T11:02:00;013;010;
26720;PMS1003;15950;51.112;6.966;2023-06-22T11:05:00;013;011;
26720;PMS1003;15950;51.112;6.966;2023-06-22T11:08:00;013;010;
26720;PMS1003;15950;51.112;6.966;2023-06-22T11:11:00;016;013;
26720;PMS1003;15950;51.112;6.966;2023-06-22T11:14:00;016;012;
26720;PMS1003;15950;51.112;6.966;2023-06-22T11:17:00;021;016;
26720;PMS1003;15950;51.112;6.966;2023-06-22T11:20:00;017;014;
26720;PMS1003;15950;51.112;6.966;2023-06-22T11:23:00;017;012;
26720;PMS1003;15950;51.112;6.966;2023-06-22T11:26:00;017;012;
26720;PMS1003;15950;51.112;6.966;2023-06-22T11:29:00;018;015;
26720;PMS1003;15950;51.112;6.966;2023-06-22T11:32:00;016;014;
26720;PMS1003;15950;51.112;6.966;2023-06-22T11:35:00;021;015;
26720;PMS1003;15950;51.112;6.966;2023-06-22T11:38:00;018;013;
26720;PMS1003;15950;51.112;6.966;2023-06-22T11:41:00;016;012;
26720;PMS1003;15950;51.112;6.966;2023-06-22T11:44:00;021;015;
26720;PMS1003;15950;51.112;6.966;2023-06-22T11:47:00;019;016;
26720;PMS1003;15950;51.112;6.966;2023-06-22T11:50:00;022;018;
26720;PMS1003;15950;51.112;6.966;2023-06-22T11:53:00;022;017;
26720;PMS1003;15950;51.112;6.966;2023-06-22T11:56:00;023;019;
26720;PMS1003;15950;51.112;6.966;2023-06-22T11:59:00;016;013;
26720;PMS1003;15950;51.112;6.966;2023-06-22T12:02:00;017;016;
26720;PMS1003;15950;51.112;6.966;2023-06-22T12:05:00;019;013;
26720;PMS1003;15950;51.112;6.966;2023-06-22T12:08:00;017;012;
26720;PMS1003;15950;51.112;6.966;2023-06-22T12:11:00;017;012;
26720;PMS1003;15950;51.112;6.966;2023-06-22T12:14:00;015;013;
26720;PMS1003;15950;51.112;6.966;2023-06-22T12:17:00;016;011;
26720;PMS1003;15950;51.112;6.966;2023-06-22T12:20:00;016;015;
26720;PMS1003;15950;51.112;6.966;2023-06-22T12:23:01;012;012;
26720;PMS1003;15950;51.112;6.966;2023-06-22T12:26:00;016;014;
26720;PMS1003;15950;51.112;6.966;2023-06-22T12:29:00;014;014;
26720;PMS1003;15950;51.112;6.966;2023-06-22T12:32:00;015;013;
26720;PMS1003;15950;51.112;6.966;2023-06-22T12:35:00;013;013;
26720;PMS1003;15950;51.112;6.966;2023-06-22T12:38:00;012;008;
26720;PMS1003;15950;51.112;6.966;2023-06-22T12:41:00;013;009;
26720;PMS1003;15950;51.112;6.966;2023-06-22T12:44:00;013;010;
26720;PMS1003;15950;51.112;6.966;2023-06-22T12:47:00;014;011;
26720;PMS1003;15950;51.112;6.966;2023-06-22T12:50:00;016;012;
26720;PMS1003;15950;51.112;6.966;2023-06-22T12:53:00;010;009;
26720;PMS1003;15950;51.112;6.966;2023-06-22T12:56:00;014;010;
26720;PMS1003;15950;51.112;6.966;2023-06-22T12:59:00;014;012;
26720;PMS1003;15950;51.112;6.966;2023-06-22T13:02:00;013;013;
26720;PMS1003;15950;51.112;6.966;2023-06-22T13:05:00;016;014;
26720;PMS1003;15950;51.112;6.966;2023-06-22T13:08:00;016;012;
26720;PMS1003;15950;51.112;6.966;2023-06-22T13:11:00;016;011;
26720;PMS1003;15950;51.112;6.966;2023-06-22T13:14:00;017;012;
26720;PMS1003;15950;51.112;6.966;2023-06-22T13:17:00;013;010;
26720;PMS1003;15950;51.112;6.966;2023-06-22T13:20:03;014;011;
26720;PMS1003;15950;51.112;6.966;2023-06-22T13:23:00;014;012;
26720;PMS1003;15950;51.112;6.966;2023-06-22T13:26:00;015;013;
26720;PMS1003;15950;51.112;6.966;2023-06-22T13:29:00;015;013;
26720;PMS1003;15950;51.112;6.966;2023-06-22T13:32:00;012;011;
26720;PMS1003;15950;51.112;6.966;2023-06-22T13:35:00;011;010;
26720;PMS1003;15950;51.112;6.966;2023-06-22T13:38:00;011;009;
26720;PMS1003;15950;51.112;6.966;2023-06-22T13:41:00;012;010;
26720;PMS1003;15950;51.112;6.966;2023-06-22T13:44:00;015;012;
26720;PMS1003;15950;51.112;6.966;2023-06-22T13:47:00;015;011;
26720;PMS1003;15950;51.112;6.966;2023-06-22T13:50:00;013;012;
26720;PMS1003;15950;51.112;6.966;2023-06-22T13:53:00;013;010;
26720;PMS1003;15950;51.112;6.966;2023-06-22T13:56:00;012;010;
26720;PMS1003;15950;51.112;6.966;2023-06-22T13:59:00;014;011;
26720;PMS1003;15950;51.112;6.966;2023-06-22T14:02:00;012;008;
26720;PMS1003;15950;51.112;6.966;2023-06-22T14:05:00;011;008;
26720;PMS1003;15950;51.112;6.966;2023-06-22T14:08:00;010;009;
26720;PMS1003;15950;51.112;6.966;2023-06-22T14:11:00;009;009;
26720;PMS1003;15950;51.112;6.966;2023-06-22T14:14:00;010;008;
26720;PMS1003;15950;51.112;6.966;2023-06-22T14:17:00;013;011;
26720;PMS1003;15950;51.112;6.966;2023-06-22T14:20:00;013;009;
26720;PMS1003;15950;51.112;6.966;2023-06-22T14:23:00;009;009;
26720;PMS1003;15950;51.112;6.966;2023-06-22T14:26:00;007;005;
26720;PMS1003;15950;51.112;6.966;2023-06-22T14:29:00;008;006;
26720;PMS1003;15950;51.112;6.966;2023-06-22T14:32:00;010;007;
26720;PMS1003;15950;51.112;6.966;2023-06-22T14:35:00;007;007;
26720;PMS1003;15950;51.112;6.966;2023-06-22T14:38:00;009;006;
26720;PMS1003;15950;51.112;6.966;2023-06-22T14:41:00;006;004;
26720;PMS1003;15950;51.112;6.966;2023-06-22T14:44:00;011;009;
26720;PMS1003;15950;51.112;6.966;2023-06-22T14:47:00;012;009;
26720;PMS1003;15950;51.112;6.966;2023-06-22T14:50:00;011;008;
26720;PMS1003;15950;51.112;6.966;2023-06-22T14:53:00;010;008;
26720;PMS1003;15950;51.112;6.966;2023-06-22T14:56:00;010;008;
26720;PMS1003;15950;51.112;6.966;2023-06-22T14:59:00;009;008;
26720;PMS1003;15950;51.112;6.966;2023-06-22T15:02:00;009;006;
26720;PMS1003;15950;51.112;6.966;2023-06-22T15:05:00;009;006;
26720;PMS1003;15950;51.112;6.966;2023-06-22T15:08:00;010;008;
26720;PMS1003;15950;51.112;6.966;2023-06-22T15:11:00;012;008;
26720;PMS1003;15950;51.112;6.966;2023-06-22T15:14:00;006;006;
26720;PMS1003;15950;51.112;6.966;2023-06-22T15:17:00;006;005;
26720;PMS1003;15950;51.112;6.966;2023-06-22T15:20:02;009;006;
26720;PMS1003;15950;51.112;6.966;2023-06-22T15:23:00;008;007;
26720;PMS1003;15950;51.112;6.966;2023-06-22T15:26:03;012;010;
26720;PMS1003;15950;51.112;6.966;2023-06-22T15:29:00;009;007;
26720;PMS1003;15950;51.112;6.966;2023-06-22T15:32:00;008;006;
26720;PMS1003;15950;51.112;6.966;2023-06-22T15:35:00;006;005;
26720;PMS1003;15950;51.112;6.966;2023-06-22T15:38:00;007;006;
26720;PMS1003;15950;51.112;6.966;2023-06-22T15:41:00;007;006;
26720;PMS1003;15950;51.112;6.966;2023-06-22T15:44:00;010;009;
26720;PMS1003;15950;51.112;6.966;2023-06-22T15:47:00;011;010;
26720;PMS1003;15950;51.112;6.966;2023-06-22T15:50:00;009;006;
26720;PMS1003;15950;51.112;6.966;2023-06-22T15:53:00;011;010;
26720;PMS1003;15950;51.112;6.966;2023-06-22T15:56:00;010;008;
26720;PMS1003;15950;51.112;6.966;2023-06-22T15:59:00;011;009;
26720;PMS1003;15950;51.112;6.966;2023-06-22T16:02:00;012;008;
26720;PMS1003;15950;51.112;6.966;2023-06-22T16:05:00;010;007;
26720;PMS1003;15950;51.112;6.966;2023-06-22T16:08:00;013;011;
26720;PMS1003;15950;51.112;6.966;2023-06-22T16:11:00;009;007;
26720;PMS1003;15950;51.112;6.966;2023-06-22T16:14:00;012;009;
26720;PMS1003;15950;51.112;6.966;2023-06-22T16:17:00;011;008;
26720;PMS1003;15950;51.112;6.966;2023-06-22T16:20:00;009;007;
26720;PMS1003;15950;51.112;6.966;2023-06-22T16:23:00;008;008;
26720;PMS1003;15950;51.112;6.966;2023-06-22T16:26:00;007;005;
26720;PMS1003;15950;51.112;6.966;2023-06-22T16:29:00;009;008;
26720;PMS1003;15950;51.112;6.966;2023-06-22T16:32:00;009;006;
26720;PMS1003;15950;51.112;6.966;2023-06-22T16:35:00;012;010;
26720;PMS1003;15950;51.112;6.966;2023-06-22T16:38:00;010;009;
26720;PMS1003;15950;51.112;6.966;2023-06-22T16:41:00;012;011;
26720;PMS1003;15950;51.112;6.966;2023-06-22T16:44:00;008;006;
26720;PMS1003;15950;51.112;6.966;2023-06-22T16:47:00;009;006;
26720;PMS1003;15950;51.112;6.966;2023-06-22T16:50:00;009;008;
26720;PMS1003;15950;51.112;6.966;2023-06-22T16:53:00;007;007;
26720;PMS1003;15950;51.112;6.966;2023-06-22T16:56:00;012;008;
26720;PMS1003;15950;51.112;6.966;2023-06-22T16:59:00;010;008;
26720;PMS1003;15950;51.112;6.966;2023-06-22T17:02:00;013;009;
26720;PMS1003;15950;51.112;6.966;2023-06-22T17:05:00;012;012;
26720;PMS1003;15950;51.112;6.966;2023-06-22T17:08:01;012;010;
26720;PMS1003;15950;51.112;6.966;2023-06-22T17:11:00;008;008;
26720;PMS1003;15950;51.112;6.966;2023-06-22T17:14:00;009;009;
26720;PMS1003;15950;51.112;6.966;2023-06-22T17:17:00;010;007;
26720;PMS1003;15950;51.112;6.966;2023-06-22T17:20:00;009;008;
26720;PMS1003;15950;51.112;6.966;2023-06-22T17:23:00;010;007;
26720;PMS1003;15950;51.112;6.966;2023-06-22T17:26:00;009;007;
26720;PMS1003;15950;51.112;6.966;2023-06-22T17:29:00;010;008;
26720;PMS1003;15950;51.112;6.966;2023-06-22T17:32:00;008;007;
26720;PMS1003;15950;51.112;6.966;2023-06-22T17:35:01;011;009;
26720;PMS1003;15950;51.112;6.966;2023-06-22T17:38:00;007;005;
26720;PMS1003;15950;51.112;6.966;2023-06-22T17:41:00;005;004;
26720;PMS1003;15950;51.112;6.966;2023-06-22T17:44:00;009;006;
26720;PMS1003;15950;51.112;6.966;2023-06-22T17:47:00;006;006;
26720;PMS1003;15950;51.112;6.966;2023-06-22T17:50:04;007;006;
26720;PMS1003;15950;51.112;6.966;2023-06-22T17:53:00;006;005;
26720;PMS1003;15950;51.112;6.966;2023-06-22T17:56:00;009;007;
26720;PMS1003;15950;51.112;6.966;2023-06-22T17:59:00;007;005;
26720;PMS1003;15950;51.112;6.966;2023-06-22T18:02:05;006;004;
26720;PMS1003;15950;51.112;6.966;2023-06-22T18:05:03;005;005;
26720;PMS1003;15950;51.112;6.966;2023-06-22T18:08:01;008;006;
26720;PMS1003;15950;51.112;6.966;2023-06-22T18:11:00;006;004;
26720;PMS1003;15950;51.112;6.966;2023-06-22T18:14:01;008;007;
26720;PMS1003;15950;51.112;6.966;2023-06-22T18:17:00;007;005;
26720;PMS1003;15950;51.112;6.966;2023-06-22T18:20:00;010;007;
26720;PMS1003;15950;51.112;6.966;2023-06-22T18:23:00;009;008;
26720;PMS1003;15950;51.112;6.966;2023-06-22T18:26:00;009;006;
26720;PMS1003;15950;51.112;6.966;2023-06-22T18:29:00;005;005;
26720;PMS1003;15950;51.112;6.966;2023-06-22T18:32:00;010;007;
26720;PMS1003;15950;51.112;6.966;2023-06-22T18:35:00;009;006;
26720;PMS1003;15950;51.112;6.966;2023-06-22T18:38:00;008;008;
26720;PMS1003;15950;51.112;6.966;2023-06-22T18:41:00;009;008;
26720;PMS1003;15950;51.112;6.966;2023-06-22T18:44:00;011;008;
26720;PMS1003;15950;51.112;6.966;2023-06-22T18:47:01;010;009;
26720;PMS1003;15950;51.112;6.966;2023-06-22T18:50:04;010;008;
26720;PMS1003;15950;51.112;6.966;2023-06-22T18:53:03;011;009;
26720;PMS1003;15950;51.112;6.966;2023-06-22T18:59:00;010;009;
26720;PMS1003;15950;51.112;6.966;2023-06-22T19:02:00;013;011;
26720;PMS1003;15950;51.112;6.966;2023-06-22T19:08:00;013;010;
26720;PMS1003;15950;51.112;6.966;2023-06-22T19:11:10;014;010;
26720;PMS1003;15950;51.112;6.966;2023-06-22T19:14:00;012;012;
26720;PMS1003;15950;51.112;6.966;2023-06-22T19:17:00;016;012;
26720;PMS1003;15950;51.112;6.966;2023-06-22T19:20:01;011;010;
26720;PMS1003;15950;51.112;6.966;2023-06-22T19:23:00;010;009;
26720;PMS1003;15950;51.112;6.966;2023-06-22T19:26:01;007;007;
26720;PMS1003;15950;51.112;6.966;2023-06-22T19:29:00;007;007;
26720;PMS1003;15950;51.112;6.966;2023-06-22T19:32:00;006;005;
26720;PMS1003;15950;51.112;6.966;2023-06-22T19:35:00;006;006;
26720;PMS1003;15950;51.112;6.966;2023-06-22T19:38:00;006;004;